createdAt,value
2019-01-26T00:01:34.514Z,6.55
2019-01-26T00:04:01.141Z,6.60
2019-01-26T00:06:28.148Z,6.43
2019-01-26T00:08:54.821Z,6.20
2019-01-26T00:11:21.636Z,6.63
2019-01-26T00:13:48.293Z,6.67
2019-01-26T00:16:20.956Z,6.17
2019-01-26T00:18:43.314Z,6.33
2019-01-26T00:21:10.325Z,6.15
2019-01-26T00:23:37.927Z,5.80
2019-01-26T00:26:04.595Z,6.23
2019-01-26T00:28:31.761Z,5.43
2019-01-26T00:30:58.641Z,6.50
2019-01-26T00:33:25.241Z,5.80
2019-01-26T00:35:52.226Z,6.17
2019-01-26T00:38:19.112Z,5.63
2019-01-26T00:40:45.926Z,5.63
2019-01-26T00:43:13.457Z,6.37
2019-01-26T00:45:40.056Z,5.67
2019-01-26T00:48:06.864Z,4.90
2019-01-26T00:50:33.695Z,5.73
2019-01-26T00:53:00.593Z,5.45
2019-01-26T00:55:28.422Z,6.07
2019-01-26T00:57:57.848Z,5.43
2019-01-26T01:00:24.755Z,5.95
2019-01-26T01:02:52.671Z,5.37
2019-01-26T01:05:20.018Z,4.97
2019-01-26T01:07:48.049Z,6.00
2019-01-26T01:10:15.948Z,6.03
2019-01-26T01:12:42.690Z,5.37
2019-01-26T01:15:11.500Z,5.23
2019-01-26T01:17:39.444Z,5.40
2019-01-26T01:20:06.100Z,5.87
2019-01-26T01:22:32.796Z,5.57
2019-01-26T01:24:59.810Z,5.80
2019-01-26T01:27:26.435Z,4.93
2019-01-26T01:29:54.156Z,5.27
2019-01-26T01:32:21.440Z,5.47
2019-01-26T01:34:48.174Z,5.40
2019-01-26T01:37:14.861Z,5.27
2019-01-26T01:39:42.950Z,5.60
2019-01-26T01:42:10.369Z,4.77
2019-01-26T01:44:37.074Z,5.40
2019-01-26T01:47:04.500Z,4.43
2019-01-26T01:49:31.770Z,5.00
2019-01-26T01:51:58.539Z,4.67
2019-01-26T01:54:28.198Z,5.00
2019-01-26T01:56:54.561Z,4.57
2019-01-26T01:59:22.265Z,4.73
2019-01-26T02:01:49.074Z,11.30
2019-01-26T02:04:15.786Z,12.47
2019-01-26T02:06:42.713Z,12.83
2019-01-26T02:09:10.409Z,14.20
2019-01-26T02:11:37.206Z,13.77
2019-01-26T02:14:05.203Z,14.57
2019-01-26T02:16:32.206Z,16.12
2019-01-26T02:18:58.853Z,13.90
2019-01-26T02:21:26.805Z,16.83
2019-01-26T02:23:54.716Z,17.73
2019-01-26T02:26:21.674Z,17.00
2019-01-26T02:28:48.371Z,16.33
2019-01-26T02:31:16.441Z,16.35
2019-01-26T02:33:43.219Z,16.40
2019-01-26T02:36:11.152Z,17.15
2019-01-26T02:38:39.567Z,16.47
2019-01-26T02:41:07.195Z,17.43
2019-01-26T02:43:35.597Z,16.97
2019-01-26T02:46:04.004Z,16.63
2019-01-26T02:48:31.014Z,18.53
2019-01-26T02:50:57.971Z,18.83
2019-01-26T02:53:25.523Z,18.30
2019-01-26T02:55:53.281Z,18.70
2019-01-26T02:58:20.027Z,19.50
2019-01-26T03:00:47.859Z,17.17
2019-01-26T03:03:16.121Z,18.37
2019-01-26T03:05:42.969Z,19.70
2019-01-26T03:08:09.980Z,19.93
2019-01-26T03:10:36.905Z,17.53
2019-01-26T03:13:03.951Z,17.98
2019-01-26T03:15:30.930Z,19.00
2019-01-26T03:17:57.931Z,17.67
2019-01-26T03:20:25.044Z,18.10
2019-01-26T03:22:52.309Z,18.92
2019-01-26T03:25:19.094Z,19.37
2019-01-26T03:27:47.229Z,18.42
2019-01-26T03:30:14.388Z,19.60
2019-01-26T03:32:41.533Z,19.23
2019-01-26T03:35:08.374Z,19.53
2019-01-26T03:37:35.052Z,17.33
2019-01-26T03:40:02.248Z,17.52
2019-01-26T03:42:28.990Z,18.93
2019-01-26T03:44:55.738Z,18.43
2019-01-26T03:47:22.867Z,19.37
2019-01-26T03:49:49.935Z,20.10
2019-01-26T03:52:17.529Z,22.80
2019-01-26T03:54:44.340Z,19.97
2019-01-26T03:57:11.089Z,21.17
2019-01-26T03:59:38.781Z,20.43
2019-01-26T04:02:06.213Z,19.90
2019-01-26T04:04:33.447Z,22.00
2019-01-26T04:07:00.069Z,19.30
2019-01-26T04:09:27.645Z,22.35
2019-01-26T04:11:54.367Z,19.57
2019-01-26T04:14:22.081Z,21.52
2019-01-26T04:16:49.174Z,20.68
2019-01-26T04:19:18.396Z,21.85
2019-01-26T04:21:45.173Z,21.37
2019-01-26T04:24:12.070Z,20.33
2019-01-26T04:26:38.737Z,19.77
2019-01-26T04:29:05.360Z,19.20
2019-01-26T04:31:32.378Z,20.88
2019-01-26T04:33:59.341Z,18.13
2019-01-26T04:36:26.300Z,20.97
2019-01-26T04:38:53.038Z,21.53
2019-01-26T04:41:20.025Z,20.57
2019-01-26T04:43:47.866Z,21.57
2019-01-26T04:46:14.733Z,21.03
2019-01-26T04:48:42.534Z,20.23
2019-01-26T04:51:09.501Z,18.23
2019-01-26T04:53:36.150Z,19.80
2019-01-26T04:56:02.823Z,20.40
2019-01-26T04:58:29.708Z,20.90
2019-01-26T05:00:56.792Z,19.00
2019-01-26T05:03:24.264Z,21.37
2019-01-26T05:05:52.176Z,19.80
2019-01-26T05:08:19.080Z,20.23
2019-01-26T05:10:46.167Z,19.80
2019-01-26T05:13:12.973Z,17.67
2019-01-26T05:15:40.055Z,20.73
2019-01-26T05:18:07.198Z,21.90
2019-01-26T05:20:34.075Z,20.00
2019-01-26T05:23:01.201Z,19.50
2019-01-26T05:25:28.020Z,19.67
2019-01-26T05:27:54.733Z,21.80
2019-01-26T05:30:21.405Z,19.43
2019-01-26T05:32:49.023Z,19.83
2019-01-26T05:35:15.718Z,18.57
2019-01-26T05:37:42.457Z,20.37
2019-01-26T05:40:09.266Z,21.13
2019-01-26T05:42:36.215Z,17.62
2019-01-26T05:45:03.615Z,17.50
2019-01-26T05:47:30.430Z,19.80
2019-01-26T05:49:57.755Z,20.90
2019-01-26T05:52:24.439Z,17.33
2019-01-26T05:54:51.405Z,17.07
2019-01-26T05:57:18.866Z,18.85
2019-01-26T05:59:45.721Z,19.10
2019-01-26T06:02:12.713Z,18.53
2019-01-26T06:04:39.674Z,18.50
2019-01-26T06:07:06.823Z,20.17
2019-01-26T06:09:33.676Z,21.23
2019-01-26T06:12:00.710Z,17.93
2019-01-26T06:14:27.462Z,19.00
2019-01-26T06:16:54.224Z,18.93
2019-01-26T06:19:21.317Z,19.70
2019-01-26T06:21:49.339Z,18.73
2019-01-26T06:24:18.662Z,19.23
2019-01-26T06:26:46.162Z,18.57
2019-01-26T06:29:15.912Z,19.57
2019-01-26T06:31:47.960Z,17.20
2019-01-26T06:34:14.434Z,19.20
2019-01-26T06:36:42.393Z,20.27
2019-01-26T06:39:12.516Z,22.87
2019-01-26T06:41:39.460Z,17.70
2019-01-26T06:44:07.996Z,20.63
2019-01-26T06:46:36.899Z,18.10
2019-01-26T06:49:03.566Z,18.77
2019-01-26T06:51:33.294Z,20.33
2019-01-26T06:54:00.212Z,19.23
2019-01-26T06:56:29.180Z,19.80
2019-01-26T06:58:55.818Z,18.20
2019-01-26T07:01:24.893Z,18.80
2019-01-26T07:03:55.100Z,20.73
2019-01-26T07:06:24.444Z,23.13
2019-01-26T07:08:53.355Z,20.30
2019-01-26T07:11:20.086Z,20.27
2019-01-26T07:13:47.129Z,18.03
2019-01-26T07:16:14.094Z,20.97
2019-01-26T07:18:43.128Z,17.20
2019-01-26T07:21:09.835Z,19.23
2019-01-26T07:23:36.559Z,21.43
2019-01-26T07:26:03.343Z,23.07
2019-01-26T07:28:30.041Z,23.30
2019-01-26T07:30:57.211Z,20.90
2019-01-26T07:33:25.162Z,23.40
2019-01-26T07:35:54.116Z,21.13
2019-01-26T07:38:23.693Z,20.97
2019-01-26T07:40:50.284Z,19.63
2019-01-26T07:43:20.426Z,23.10
2019-01-26T07:45:47.090Z,19.33
2019-01-26T07:48:16.855Z,20.40
2019-01-26T07:50:44.785Z,20.00
2019-01-26T07:53:11.495Z,19.10
2019-01-26T07:55:38.355Z,18.07
2019-01-26T07:58:05.322Z,20.03
2019-01-26T08:00:34.298Z,19.05
2019-01-26T08:03:02.969Z,21.42
2019-01-26T08:05:33.117Z,19.73
2019-01-26T08:08:02.989Z,17.20
2019-01-26T08:10:30.247Z,18.07
2019-01-26T08:12:58.933Z,17.20
2019-01-26T08:15:25.601Z,16.30
2019-01-26T08:17:54.895Z,19.63
2019-01-26T08:20:25.573Z,17.10
2019-01-26T08:22:53.310Z,17.93
2019-01-26T08:25:22.458Z,20.23
2019-01-26T08:27:50.682Z,20.93
2019-01-26T08:30:17.743Z,19.47
2019-01-26T08:32:48.187Z,18.20
2019-01-26T08:35:15.972Z,20.40
2019-01-26T08:37:42.882Z,20.20
2019-01-26T08:40:09.609Z,22.37
2019-01-26T08:42:39.424Z,19.23
2019-01-26T08:45:06.471Z,17.02
2019-01-26T08:47:35.463Z,21.33
2019-01-26T08:50:02.851Z,20.47
2019-01-26T08:52:39.372Z,21.63
2019-01-26T08:55:02.918Z,22.50
2019-01-26T08:57:33.768Z,18.63
2019-01-26T09:00:00.643Z,21.60
2019-01-26T09:02:28.247Z,18.95
2019-01-26T09:04:54.987Z,20.43
2019-01-26T09:07:21.970Z,18.10
2019-01-26T09:09:49.177Z,20.47
2019-01-26T09:12:16.514Z,18.90
2019-01-26T09:14:44.163Z,19.27
2019-01-26T09:17:11.195Z,19.83
2019-01-26T09:19:38.253Z,18.17
2019-01-26T09:22:05.053Z,22.07
2019-01-26T09:24:32.003Z,22.43
2019-01-26T09:26:58.609Z,21.27
2019-01-26T09:29:25.219Z,21.55
2019-01-26T09:31:52.222Z,20.83
2019-01-26T09:34:19.199Z,20.97
2019-01-26T09:36:46.078Z,19.73
2019-01-26T09:39:12.729Z,20.67
2019-01-26T09:41:39.533Z,18.83
2019-01-26T09:44:06.431Z,19.50
2019-01-26T09:46:33.334Z,19.03
2019-01-26T09:48:59.997Z,19.30
2019-01-26T09:51:26.641Z,20.17
2019-01-26T09:53:53.357Z,20.23
2019-01-26T09:56:22.129Z,19.42
2019-01-26T09:58:48.757Z,19.40
2019-01-26T10:01:15.533Z,19.83
2019-01-26T10:03:42.495Z,18.90
2019-01-26T10:06:09.103Z,19.73
2019-01-26T10:08:35.706Z,21.77
2019-01-26T10:11:02.582Z,21.77
2019-01-26T10:13:29.578Z,20.68
2019-01-26T10:15:56.253Z,20.52
2019-01-26T10:18:23.017Z,20.60
2019-01-26T10:20:49.744Z,19.50
2019-01-26T10:23:16.361Z,19.40
2019-01-26T10:25:48.623Z,21.70
2019-01-26T10:28:11.462Z,18.77
2019-01-26T10:30:38.062Z,22.33
2019-01-26T10:33:05.102Z,22.00
2019-01-26T10:35:31.950Z,20.80
2019-01-26T10:37:58.585Z,21.00
2019-01-26T10:40:25.252Z,19.57
2019-01-26T10:42:52.545Z,20.63
2019-01-26T10:45:19.163Z,18.90
2019-01-26T10:47:46.110Z,19.57
2019-01-26T10:50:12.724Z,20.70
2019-01-26T10:52:39.384Z,20.73
2019-01-26T10:55:06.225Z,19.43
2019-01-26T10:57:32.819Z,18.83
2019-01-26T10:59:59.476Z,19.20
2019-01-26T11:02:26.338Z,21.27
2019-01-26T11:04:53.248Z,17.77
2019-01-26T11:07:19.859Z,21.77
2019-01-26T11:09:46.572Z,18.27
2019-01-26T11:12:13.431Z,19.17
2019-01-26T11:14:40.382Z,17.80
2019-01-26T11:17:06.991Z,19.80
2019-01-26T11:19:33.899Z,19.10
2019-01-26T11:22:00.531Z,18.50
2019-01-26T11:24:27.480Z,19.34
2019-01-26T11:26:54.086Z,21.53
2019-01-26T11:29:20.732Z,20.27
2019-01-26T11:31:47.686Z,22.30
2019-01-26T11:34:14.607Z,20.92
2019-01-26T11:36:41.493Z,22.13
2019-01-26T11:39:08.159Z,20.00
2019-01-26T11:41:34.852Z,21.73
2019-01-26T11:44:01.798Z,23.30
2019-01-26T11:46:28.402Z,25.17
2019-01-26T11:48:55.014Z,25.73
2019-01-26T11:51:23.468Z,27.04
2019-01-26T11:53:50.160Z,27.33
2019-01-26T11:56:17.068Z,26.73
2019-01-26T11:58:44.059Z,27.25
2019-01-26T12:01:11.197Z,26.10
2019-01-26T12:03:38.150Z,29.43
2019-01-26T12:06:05.340Z,25.48
2019-01-26T12:08:32.323Z,25.93
2019-01-26T12:10:59.539Z,24.75
2019-01-26T12:13:26.229Z,27.40
2019-01-26T12:15:53.828Z,26.45
2019-01-26T12:18:20.481Z,25.67
2019-01-26T12:20:47.453Z,26.20
2019-01-26T12:23:14.490Z,25.82
2019-01-26T12:25:41.399Z,28.80
2019-01-26T12:28:08.113Z,26.27
2019-01-26T12:30:35.090Z,26.17
2019-01-26T12:33:01.779Z,25.07
2019-01-26T12:35:28.602Z,24.57
2019-01-26T12:37:55.540Z,26.37
2019-01-26T12:40:23.977Z,26.38
2019-01-26T12:42:50.779Z,27.70
2019-01-26T12:45:20.281Z,25.80
2019-01-26T12:47:48.935Z,25.23
2019-01-26T12:50:18.173Z,25.63
2019-01-26T12:52:46.918Z,25.27
2019-01-26T12:55:16.475Z,24.23
2019-01-26T12:57:45.673Z,24.40
2019-01-26T13:00:15.538Z,24.50
2019-01-26T13:02:42.352Z,20.80
2019-01-26T13:05:10.500Z,23.07
2019-01-26T13:07:37.130Z,22.00
2019-01-26T13:10:06.023Z,21.93
2019-01-26T13:12:44.054Z,21.65
2019-01-26T13:15:15.332Z,22.60
2019-01-26T13:17:44.070Z,21.83
2019-01-26T13:20:10.728Z,21.37
2019-01-26T13:22:37.392Z,21.17
2019-01-26T13:25:05.164Z,20.80
2019-01-26T13:27:32.403Z,20.50
2019-01-26T13:30:02.237Z,21.23
2019-01-26T13:32:30.143Z,22.22
2019-01-26T13:34:58.382Z,27.20
2019-01-26T13:37:31.166Z,23.47
2019-01-26T13:39:58.994Z,21.87
2019-01-26T13:42:26.774Z,22.23
2019-01-26T13:44:53.452Z,20.03
2019-01-26T13:47:23.424Z,19.48
2019-01-26T13:49:52.097Z,20.20
2019-01-26T13:52:21.847Z,19.70
2019-01-26T13:54:51.159Z,20.95
2019-01-26T13:57:18.752Z,23.53
2019-01-26T13:59:48.042Z,23.27
2019-01-26T14:02:17.971Z,23.97
2019-01-26T14:04:48.696Z,22.30
2019-01-26T14:07:19.113Z,23.47
2019-01-26T14:09:48.705Z,23.22
2019-01-26T14:12:21.428Z,22.57
2019-01-26T14:14:51.966Z,21.83
2019-01-26T14:17:20.431Z,21.77
2019-01-26T14:19:51.437Z,22.63
2019-01-26T14:22:18.497Z,21.53
2019-01-26T14:24:46.177Z,21.33
2019-01-26T14:27:15.518Z,19.17
2019-01-26T14:29:42.512Z,18.05
2019-01-26T14:32:14.228Z,17.63
2019-01-26T14:34:41.629Z,15.50
2019-01-26T14:37:10.227Z,15.00
2019-01-26T14:39:37.140Z,15.03
2019-01-26T14:42:04.694Z,14.93
2019-01-26T14:44:31.452Z,12.03
2019-01-26T14:46:58.267Z,12.63
2019-01-26T14:49:25.725Z,13.17
2019-01-26T14:52:05.231Z,14.00
2019-01-26T14:54:33.302Z,13.03
2019-01-26T14:57:01.250Z,12.85
2019-01-26T14:59:28.684Z,13.07
2019-01-26T15:02:00.399Z,12.60
2019-01-26T15:04:32.078Z,11.53
2019-01-26T15:07:00.213Z,12.10
2019-01-26T15:09:29.995Z,13.00
2019-01-26T15:12:00.371Z,11.87
2019-01-26T15:14:30.795Z,12.60
2019-01-26T15:17:03.925Z,12.33
2019-01-26T15:19:34.131Z,16.10
2019-01-26T15:22:02.810Z,12.97
2019-01-26T15:24:30.435Z,11.47
2019-01-26T15:26:58.417Z,12.93
2019-01-26T15:29:30.367Z,14.47
2019-01-26T15:31:59.626Z,12.33
2019-01-26T15:34:28.258Z,13.05
2019-01-26T15:36:57.585Z,13.33
2019-01-26T15:39:24.425Z,14.50
2019-01-26T15:41:53.445Z,13.30
2019-01-26T15:44:20.751Z,14.20
2019-01-26T15:46:48.452Z,13.80
2019-01-26T15:49:16.164Z,14.77
2019-01-26T15:51:44.419Z,14.00
2019-01-26T15:54:12.888Z,13.50
2019-01-26T15:56:40.632Z,14.17
2019-01-26T15:59:09.492Z,13.40
2019-01-26T16:01:40.612Z,13.83
2019-01-26T16:06:56.986Z,14.40
2019-01-26T16:09:24.722Z,15.13
2019-01-26T16:11:52.509Z,14.33
2019-01-26T16:14:19.848Z,12.83
2019-01-26T16:16:47.712Z,14.80
2019-01-26T16:19:16.764Z,14.67
2019-01-26T16:21:43.773Z,13.60
2019-01-26T16:24:10.440Z,14.53
2019-01-26T16:26:37.059Z,15.30
2019-01-26T16:29:03.946Z,13.60
2019-01-26T16:31:31.091Z,15.85
2019-01-26T16:33:57.928Z,15.60
2019-01-26T16:36:25.829Z,16.17
2019-01-26T16:38:53.087Z,14.33
2019-01-26T16:41:28.535Z,16.70
2019-01-26T16:43:53.250Z,18.13
2019-01-26T16:46:22.639Z,16.63
2019-01-26T16:48:52.163Z,15.90
2019-01-26T16:51:21.815Z,18.92
2019-01-26T16:53:50.597Z,18.83
2019-01-26T16:56:19.515Z,17.17
2019-01-26T17:01:20.415Z,13.50
2019-01-26T17:06:52.776Z,23.03
2019-01-26T17:09:30.543Z,23.33
2019-01-26T17:12:01.383Z,23.42
2019-01-26T17:14:28.954Z,20.77
2019-01-26T17:17:00.591Z,20.42
2019-01-26T17:19:30.423Z,19.52
2019-01-26T17:22:01.823Z,20.15
2019-01-26T17:24:28.212Z,20.67
2019-01-26T17:26:56.864Z,17.90
2019-01-26T17:29:25.981Z,18.80
2019-01-26T17:31:56.491Z,18.10
2019-01-26T17:34:23.251Z,16.20
2019-01-26T17:36:49.950Z,20.13
2019-01-26T17:39:16.850Z,20.82
2019-01-26T17:41:44.068Z,20.80
2019-01-26T17:44:15.965Z,22.42
2019-01-26T17:46:42.652Z,21.10
2019-01-26T17:49:09.340Z,20.73
2019-01-26T17:51:36.201Z,17.90
2019-01-26T17:54:02.891Z,19.53
2019-01-26T17:56:30.659Z,19.30
2019-01-26T17:58:57.351Z,20.53
2019-01-26T18:01:23.999Z,21.07
2019-01-26T18:03:50.816Z,19.90
2019-01-26T18:06:17.637Z,18.50
2019-01-26T18:08:44.283Z,17.37
2019-01-26T18:11:10.921Z,17.65
2019-01-26T18:13:37.858Z,20.10
2019-01-26T18:16:04.766Z,19.87
2019-01-26T18:18:31.390Z,19.43
2019-01-26T18:20:58.014Z,19.63
2019-01-26T18:23:24.870Z,21.77
2019-01-26T18:25:51.567Z,22.33
2019-01-26T18:28:18.246Z,19.90
2019-01-26T18:30:45.011Z,20.47
2019-01-26T18:33:11.911Z,22.73
2019-01-26T18:35:39.150Z,21.05
2019-01-26T18:40:35.747Z,20.52
2019-01-26T18:43:04.637Z,24.03
2019-01-26T18:45:31.613Z,24.30
2019-01-26T18:47:58.188Z,20.33
2019-01-26T18:50:25.137Z,22.73
2019-01-26T18:52:54.046Z,23.43
2019-01-26T18:55:24.682Z,24.27
2019-01-26T18:57:55.020Z,23.23
2019-01-26T19:00:21.345Z,21.20
2019-01-26T19:02:49.906Z,21.53
2019-01-26T19:05:20.402Z,20.10
2019-01-26T19:07:48.835Z,21.27
2019-01-26T19:10:17.873Z,21.57
2019-01-26T19:12:47.028Z,21.60
2019-01-26T19:15:15.819Z,23.47
2019-01-26T19:17:45.196Z,22.63
2019-01-26T19:20:12.652Z,27.63
2019-01-26T19:22:41.950Z,24.12
2019-01-26T19:25:11.046Z,23.70
2019-01-26T19:27:40.649Z,23.77
2019-01-26T19:32:57.195Z,23.67
2019-01-26T19:35:27.504Z,24.13
2019-01-26T19:37:55.120Z,23.93
2019-01-26T19:40:21.885Z,23.40
2019-01-26T19:42:48.856Z,25.27
2019-01-26T19:45:15.749Z,33.58
2019-01-26T19:47:43.319Z,28.77
2019-01-26T19:50:11.437Z,26.03
2019-01-26T19:52:40.723Z,26.53
2019-01-26T19:55:09.742Z,26.20
2019-01-26T19:57:37.839Z,29.33
2019-01-26T20:00:08.206Z,26.37
2019-01-26T20:02:37.593Z,27.53
2019-01-26T20:05:08.256Z,26.33
2019-01-26T20:07:39.295Z,26.70
2019-01-26T20:10:09.538Z,24.33
2019-01-26T20:12:58.698Z,28.80
2019-01-26T20:15:17.529Z,25.40
2019-01-26T20:18:03.292Z,27.30
2019-01-26T20:20:45.708Z,24.63
2019-01-26T20:23:19.061Z,26.40
2019-01-26T20:25:43.370Z,27.73
2019-01-26T20:28:14.547Z,24.87
2019-01-26T20:30:53.188Z,32.10
2019-01-26T20:33:24.506Z,38.50
2019-01-26T20:38:41.067Z,29.90
2019-01-26T20:41:07.705Z,26.27
2019-01-26T20:43:34.334Z,31.50
2019-01-26T20:46:03.587Z,30.93
2019-01-26T20:48:34.989Z,33.27
2019-01-26T20:51:06.496Z,36.42
2019-01-26T20:53:36.254Z,32.07
2019-01-26T20:56:06.565Z,28.30
2019-01-26T20:58:35.390Z,30.08
2019-01-26T21:01:02.113Z,33.87
2019-01-26T21:03:28.946Z,28.17
2019-01-26T21:05:56.555Z,25.80
2019-01-26T21:08:24.268Z,23.10
2019-01-26T21:10:50.899Z,27.97
2019-01-26T21:13:21.699Z,23.05
2019-01-26T21:15:49.796Z,25.62
2019-01-26T21:18:34.249Z,24.50
2019-01-26T21:21:04.207Z,24.33
2019-01-26T21:23:30.961Z,23.97
2019-01-26T21:26:01.892Z,25.70
2019-01-26T21:28:28.512Z,23.75
2019-01-26T21:30:59.444Z,25.30
2019-01-26T21:33:27.115Z,25.47
2019-01-26T21:35:56.966Z,25.90
2019-01-26T21:38:25.021Z,25.93
2019-01-26T21:40:53.160Z,26.87
2019-01-26T21:43:21.052Z,26.97
2019-01-26T21:45:51.636Z,25.37
2019-01-26T21:48:18.381Z,24.20
2019-01-26T21:50:52.417Z,24.20
2019-01-26T21:53:22.321Z,24.13
2019-01-26T21:55:56.792Z,24.87
2019-01-26T21:58:23.381Z,27.87
2019-01-26T22:01:07.653Z,27.10
2019-01-26T22:03:34.238Z,28.20
2019-01-26T22:06:01.176Z,25.85
2019-01-26T22:08:27.810Z,27.00
2019-01-26T22:10:54.486Z,26.27
2019-01-26T22:13:21.281Z,28.13
2019-01-26T22:15:48.579Z,33.73
2019-01-26T22:18:15.461Z,34.73
2019-01-26T22:20:42.525Z,34.85
2019-01-26T22:23:10.791Z,36.78
2019-01-26T22:25:37.478Z,33.50
2019-01-26T22:28:04.063Z,33.90
2019-01-26T22:30:30.701Z,34.73
2019-01-26T22:32:57.627Z,33.40
2019-01-26T22:35:24.244Z,30.90
2019-01-26T22:37:50.994Z,33.87
2019-01-26T22:40:17.701Z,34.03
2019-01-26T22:42:44.593Z,40.15
2019-01-26T22:45:11.257Z,47.23
2019-01-26T22:47:37.959Z,40.63
2019-01-26T22:50:04.887Z,32.08
2019-01-26T22:52:31.701Z,31.40
2019-01-26T22:54:58.373Z,31.97
2019-01-26T22:57:25.019Z,29.70
2019-01-26T22:59:51.670Z,34.35
2019-01-26T23:02:18.272Z,32.33
2019-01-26T23:04:45.073Z,28.85
2019-01-26T23:07:11.703Z,29.30
2019-01-26T23:09:38.315Z,31.70
2019-01-26T23:12:05.213Z,30.53
2019-01-26T23:14:31.849Z,32.83
2019-01-26T23:16:58.499Z,30.17
2019-01-26T23:19:25.330Z,32.37
2019-01-26T23:21:52.014Z,29.50
2019-01-26T23:24:18.645Z,31.63
2019-01-26T23:26:45.476Z,29.23
2019-01-26T23:29:12.413Z,31.75
2019-01-26T23:31:39.353Z,29.52
2019-01-26T23:34:06.031Z,28.53
2019-01-26T23:36:32.670Z,33.03
2019-01-26T23:39:02.538Z,30.83
2019-01-26T23:41:27.973Z,29.10
2019-01-26T23:43:54.905Z,30.47
2019-01-26T23:46:21.617Z,29.00
2019-01-26T23:48:48.233Z,30.35
2019-01-26T23:51:14.843Z,33.83
2019-01-26T23:53:42.139Z,29.53
2019-01-26T23:56:08.789Z,28.77
2019-01-26T23:58:35.670Z,29.32
